createdAt,value
2022-10-22T00:00:42.536Z,55.90
2022-10-22T00:03:44.336Z,55.90
2022-10-22T00:06:46.073Z,55.90
2022-10-22T00:09:48.323Z,56.00
2022-10-22T00:12:49.999Z,56.00
2022-10-22T00:15:51.712Z,55.90
2022-10-22T00:18:53.416Z,55.90
2022-10-22T00:21:55.247Z,55.90
2022-10-22T00:24:56.985Z,56.00
2022-10-22T00:27:58.675Z,56.20
2022-10-22T00:31:01.015Z,55.90
2022-10-22T00:34:02.905Z,56.00
2022-10-22T00:37:04.726Z,55.90
2022-10-22T00:40:07.049Z,55.90
2022-10-22T00:43:13.161Z,56.00
2022-10-22T00:46:14.856Z,56.00
2022-10-22T00:49:16.603Z,56.00
2022-10-22T00:52:18.605Z,55.90
2022-10-22T00:55:21.484Z,55.90
2022-10-22T00:58:28.463Z,56.00
2022-10-22T01:01:32.104Z,56.00
2022-10-22T01:04:33.892Z,56.00
2022-10-22T01:07:44.655Z,56.00
2022-10-22T01:10:59.121Z,55.90
2022-10-22T01:14:09.210Z,56.00
2022-10-22T01:17:27.335Z,56.00
2022-10-22T01:20:56.750Z,56.00
2022-10-22T01:24:27.940Z,56.00
2022-10-22T01:27:56.970Z,56.00
2022-10-22T01:30:59.627Z,56.00
2022-10-22T01:34:03.278Z,56.10
2022-10-22T01:37:05.093Z,56.00
2022-10-22T01:40:08.905Z,56.00
2022-10-22T01:43:11.558Z,56.00
2022-10-22T01:46:13.927Z,56.00
2022-10-22T01:49:26.998Z,56.00
2022-10-22T01:53:06.407Z,56.60
2022-10-22T01:56:08.042Z,56.00
2022-10-22T01:59:17.539Z,56.00
2022-10-22T02:02:41.195Z,56.10
2022-10-22T02:06:01.122Z,56.10
2022-10-22T02:09:03.819Z,56.10
2022-10-22T02:12:07.963Z,56.10
2022-10-22T02:15:12.318Z,56.10
2022-10-22T02:18:15.668Z,56.10
2022-10-22T02:21:17.646Z,56.10
2022-10-22T02:24:20.367Z,56.10
2022-10-22T02:27:30.915Z,56.10
2022-10-22T02:30:35.082Z,56.00
2022-10-22T02:33:43.831Z,56.10
2022-10-22T02:36:49.632Z,56.00
2022-10-22T02:39:53.459Z,56.00
2022-10-22T02:42:55.207Z,56.00
2022-10-22T02:45:57.071Z,56.10
2022-10-22T02:48:58.762Z,56.10
2022-10-22T02:52:00.758Z,56.10
2022-10-22T02:55:02.738Z,56.10
2022-10-22T02:58:04.431Z,56.00
2022-10-22T03:01:06.378Z,56.00
2022-10-22T03:04:08.242Z,56.00
2022-10-22T03:07:10.296Z,56.00
2022-10-22T03:10:12.031Z,56.00
2022-10-22T03:13:13.880Z,56.00
2022-10-22T03:16:15.587Z,56.00
2022-10-22T03:19:17.368Z,56.00
2022-10-22T03:22:28.184Z,56.00
2022-10-22T03:25:34.339Z,56.00
2022-10-22T03:28:37.121Z,56.00
2022-10-22T03:31:38.826Z,56.00
2022-10-22T03:34:40.613Z,56.00
2022-10-22T03:37:42.886Z,56.00
2022-10-22T03:40:46.089Z,56.00
2022-10-22T03:43:51.450Z,56.00
2022-10-22T03:46:53.368Z,55.90
2022-10-22T03:49:55.063Z,56.00
2022-10-22T03:52:58.092Z,56.00
2022-10-22T03:55:59.761Z,56.00
2022-10-22T03:59:01.726Z,55.90
2022-10-22T04:02:04.134Z,56.00
2022-10-22T04:05:06.365Z,56.00
2022-10-22T04:08:08.325Z,56.00
2022-10-22T04:11:10.757Z,56.00
2022-10-22T04:14:12.553Z,56.00
2022-10-22T04:17:14.676Z,56.00
2022-10-22T04:20:16.406Z,56.00
2022-10-22T04:23:18.130Z,56.00
2022-10-22T04:26:20.513Z,55.90
2022-10-22T04:29:22.543Z,55.90
2022-10-22T04:32:25.174Z,55.90
2022-10-22T04:35:26.900Z,56.00
2022-10-22T04:38:28.590Z,56.00
2022-10-22T04:41:33.807Z,55.90
2022-10-22T04:44:35.552Z,55.90
2022-10-22T04:47:37.439Z,55.90
2022-10-22T04:50:39.315Z,56.00
2022-10-22T04:53:41.448Z,55.90
2022-10-22T04:56:43.179Z,55.90
2022-10-22T04:59:44.876Z,56.00
2022-10-22T05:02:49.887Z,56.00
2022-10-22T05:05:51.645Z,56.00
2022-10-22T05:08:56.078Z,55.90
2022-10-22T05:11:57.838Z,55.90
2022-10-22T05:14:59.551Z,56.00
2022-10-22T05:18:01.690Z,55.90
2022-10-22T05:21:05.284Z,56.00
2022-10-22T05:24:07.380Z,55.90
2022-10-22T05:27:09.144Z,55.90
2022-10-22T05:30:11.392Z,55.90
2022-10-22T05:33:13.124Z,55.90
2022-10-22T05:36:20.793Z,55.70
2022-10-22T05:39:22.507Z,55.80
2022-10-22T05:42:24.242Z,55.80
2022-10-22T05:45:25.955Z,55.80
2022-10-22T05:48:27.699Z,55.80
2022-10-22T05:51:31.587Z,55.90
2022-10-22T05:54:33.297Z,55.80
2022-10-22T05:57:34.973Z,55.80
2022-10-22T06:00:36.732Z,55.80
2022-10-22T06:03:38.646Z,55.80
2022-10-22T06:06:44.863Z,55.90
2022-10-22T06:09:50.080Z,55.80
2022-10-22T06:12:51.775Z,55.80
2022-10-22T06:15:53.625Z,55.80
2022-10-22T06:18:55.344Z,56.40
2022-10-22T06:21:57.020Z,55.40
2022-10-22T06:24:58.715Z,55.60
2022-10-22T06:28:00.446Z,55.50
2022-10-22T06:31:03.262Z,55.50
2022-10-22T06:34:06.979Z,55.40
2022-10-22T06:37:10.511Z,55.30
2022-10-22T06:40:12.681Z,55.30
2022-10-22T06:43:15.328Z,55.90
2022-10-22T06:46:20.244Z,55.40
2022-10-22T06:49:22.141Z,55.30
2022-10-22T06:52:23.847Z,55.30
2022-10-22T06:55:25.589Z,55.30
2022-10-22T06:58:27.245Z,55.20
2022-10-22T07:01:32.356Z,54.90
2022-10-22T07:04:34.107Z,53.40
2022-10-22T07:07:35.806Z,51.90
2022-10-22T07:10:37.544Z,51.30
2022-10-22T07:13:39.607Z,51.10
2022-10-22T07:16:45.695Z,51.30
2022-10-22T07:19:49.752Z,51.70
2022-10-22T07:22:52.999Z,51.40
2022-10-22T07:29:01.661Z,52.10
2022-10-22T07:32:03.466Z,52.40
2022-10-22T07:35:05.746Z,52.70
2022-10-22T07:38:09.273Z,52.80
2022-10-22T07:41:11.214Z,53.00
2022-10-22T07:44:12.949Z,52.90
2022-10-22T07:47:14.669Z,53.10
2022-10-22T07:50:16.610Z,53.20
2022-10-22T07:53:18.545Z,53.40
2022-10-22T07:56:20.339Z,53.40
2022-10-22T07:59:22.092Z,53.60
2022-10-22T08:02:24.753Z,53.70
2022-10-22T08:05:26.506Z,53.70
2022-10-22T08:08:30.829Z,53.90
2022-10-22T08:11:33.557Z,53.90
2022-10-22T08:14:35.483Z,54.00
2022-10-22T08:17:37.180Z,54.00
2022-10-22T08:20:39.197Z,54.10
2022-10-22T08:23:40.898Z,54.10
2022-10-22T08:26:42.862Z,54.20
2022-10-22T08:29:44.555Z,54.20
2022-10-22T08:32:46.278Z,54.30
2022-10-22T08:35:50.001Z,54.30
2022-10-22T08:38:51.708Z,54.30
2022-10-22T08:42:37.447Z,54.40
2022-10-22T08:46:12.122Z,54.50
2022-10-22T08:49:21.792Z,54.50
2022-10-22T08:52:23.488Z,54.40
2022-10-22T08:55:25.972Z,54.40
2022-10-22T08:58:50.714Z,55.10
2022-10-22T09:01:54.191Z,54.60
2022-10-22T09:05:19.909Z,54.50
2022-10-22T09:08:22.783Z,54.40
2022-10-22T09:11:33.514Z,54.40
2022-10-22T09:14:35.248Z,54.80
2022-10-22T09:17:58.727Z,54.70
2022-10-22T09:21:19.096Z,54.80
2022-10-22T09:24:41.828Z,54.80
2022-10-22T09:27:44.042Z,54.80
2022-10-22T09:30:46.238Z,55.30
2022-10-22T09:33:51.028Z,54.80
2022-10-22T09:37:04.774Z,54.80
2022-10-22T09:40:06.905Z,54.90
2022-10-22T09:43:12.720Z,54.80
2022-10-22T09:46:20.836Z,54.90
2022-10-22T09:49:24.135Z,54.80
2022-10-22T09:52:30.321Z,54.80
2022-10-22T09:55:32.079Z,54.80
2022-10-22T09:58:49.144Z,54.90
2022-10-22T10:02:08.378Z,54.90
2022-10-22T10:05:25.156Z,54.80
2022-10-22T10:08:27.307Z,54.80
2022-10-22T10:11:55.995Z,54.80
2022-10-22T10:15:12.529Z,55.00
2022-10-22T10:18:55.377Z,54.90
2022-10-22T10:22:21.477Z,55.10
2022-10-22T10:25:48.174Z,55.00
2022-10-22T10:29:31.125Z,55.00
2022-10-22T10:32:39.065Z,55.00
2022-10-22T10:35:55.141Z,54.80
2022-10-22T10:39:33.402Z,54.70
2022-10-22T10:42:46.576Z,54.70
2022-10-22T10:46:23.074Z,54.50
2022-10-22T10:49:26.989Z,54.60
2022-10-22T10:52:40.470Z,54.40
2022-10-22T10:56:07.050Z,54.60
2022-10-22T10:59:51.556Z,54.60
2022-10-22T11:03:12.130Z,54.60
2022-10-22T11:06:19.392Z,54.60
2022-10-22T11:09:37.030Z,54.60
2022-10-22T11:12:44.313Z,54.60
2022-10-22T11:15:48.673Z,54.60
2022-10-22T11:19:06.072Z,54.70
2022-10-22T11:23:00.452Z,54.70
2022-10-22T11:26:14.858Z,54.70
2022-10-22T11:29:27.206Z,54.90
2022-10-22T11:32:32.683Z,54.80
2022-10-22T11:35:38.735Z,54.80
2022-10-22T11:38:40.576Z,54.90
2022-10-22T11:41:45.542Z,54.80
2022-10-22T11:45:08.693Z,54.90
2022-10-22T11:48:10.364Z,55.00
2022-10-22T11:51:33.872Z,54.90
2022-10-22T11:54:37.283Z,55.00
2022-10-22T11:57:42.147Z,55.00
2022-10-22T12:00:48.872Z,55.10
2022-10-22T12:04:13.338Z,55.10
2022-10-22T12:07:54.511Z,55.10
2022-10-22T12:11:10.152Z,55.20
2022-10-22T12:14:30.849Z,55.20
2022-10-22T12:17:32.578Z,55.60
2022-10-22T12:20:34.771Z,55.10
2022-10-22T12:23:37.585Z,55.10
2022-10-22T12:26:39.328Z,55.00
2022-10-22T12:29:41.149Z,55.00
2022-10-22T12:32:42.979Z,55.00
2022-10-22T12:35:46.611Z,55.00
2022-10-22T12:38:48.333Z,55.00
2022-10-22T12:41:51.917Z,55.00
2022-10-22T12:44:56.855Z,54.90
2022-10-22T12:48:04.422Z,55.00
2022-10-22T12:51:08.093Z,55.00
2022-10-22T12:54:43.827Z,55.00
2022-10-22T12:57:49.569Z,55.00
2022-10-22T13:01:01.923Z,55.00
2022-10-22T13:04:20.877Z,55.10
2022-10-22T13:07:22.612Z,55.10
2022-10-22T13:10:30.803Z,55.20
2022-10-22T13:13:43.142Z,55.20
2022-10-22T13:17:11.908Z,55.20
2022-10-22T13:20:22.014Z,55.20
2022-10-22T13:23:26.499Z,55.30
2022-10-22T13:26:34.770Z,55.30
2022-10-22T13:29:38.213Z,55.20
2022-10-22T13:32:40.023Z,55.30
2022-10-22T13:35:41.830Z,55.30
2022-10-22T13:38:44.278Z,55.30
2022-10-22T13:41:46.027Z,55.20
2022-10-22T13:44:47.866Z,55.20
2022-10-22T13:47:53.156Z,55.20
2022-10-22T13:50:55.121Z,55.20
2022-10-22T13:53:57.215Z,55.20
2022-10-22T13:56:58.918Z,55.30
2022-10-22T14:00:00.755Z,55.20
2022-10-22T14:03:02.547Z,55.30
2022-10-22T14:06:07.539Z,55.40
2022-10-22T14:09:14.890Z,55.30
2022-10-22T14:12:17.243Z,55.30
2022-10-22T14:15:21.137Z,55.30
2022-10-22T14:18:28.882Z,55.30
2022-10-22T14:21:35.533Z,55.60
2022-10-22T14:24:37.239Z,55.70
2022-10-22T14:27:39.240Z,55.70
2022-10-22T14:30:41.505Z,56.30
2022-10-22T14:33:43.383Z,56.30
2022-10-22T14:36:45.188Z,56.50
2022-10-22T14:39:51.920Z,56.20
2022-10-22T14:42:53.751Z,56.70
2022-10-22T14:45:56.106Z,56.60
2022-10-22T14:48:57.838Z,56.80
2022-10-22T14:51:59.589Z,57.00
2022-10-22T14:55:01.403Z,56.90
2022-10-22T14:58:03.163Z,57.00
2022-10-22T15:01:05.140Z,57.10
2022-10-22T15:04:06.952Z,57.10
2022-10-22T15:07:08.661Z,57.10
2022-10-22T15:10:10.545Z,57.30
2022-10-22T15:13:12.317Z,57.30
2022-10-22T15:16:16.370Z,57.40
2022-10-22T15:19:18.083Z,57.30
2022-10-22T15:22:19.896Z,57.40
2022-10-22T15:25:21.629Z,57.40
2022-10-22T15:28:24.278Z,57.50
2022-10-22T15:31:43.212Z,57.40
2022-10-22T15:34:44.922Z,57.40
2022-10-22T15:37:46.612Z,57.40
2022-10-22T15:40:48.369Z,57.50
2022-10-22T15:43:50.103Z,57.20
2022-10-22T15:46:54.696Z,56.80
2022-10-22T15:49:57.007Z,56.60
2022-10-22T15:52:58.759Z,56.40
2022-10-22T15:56:00.470Z,56.30
2022-10-22T15:59:04.041Z,56.30
2022-10-22T16:02:07.199Z,56.30
2022-10-22T16:05:09.388Z,56.40
2022-10-22T16:08:11.083Z,56.50
2022-10-22T16:11:12.970Z,56.60
2022-10-22T16:14:16.565Z,56.70
2022-10-22T16:17:18.647Z,56.80
2022-10-22T16:20:20.370Z,56.80
2022-10-22T16:23:22.573Z,56.60
2022-10-22T16:26:24.254Z,56.70
2022-10-22T16:29:26.122Z,56.80
2022-10-22T16:32:27.905Z,56.80
2022-10-22T16:35:30.003Z,56.90
2022-10-22T16:38:31.959Z,56.90
2022-10-22T16:41:37.215Z,56.90
2022-10-22T16:44:38.910Z,56.90
2022-10-22T16:47:43.026Z,56.90
2022-10-22T16:50:45.449Z,57.00
2022-10-22T16:53:47.229Z,56.90
2022-10-22T16:56:49.032Z,56.90
2022-10-22T16:59:50.998Z,57.00
2022-10-22T17:02:53.906Z,57.00
2022-10-22T17:05:59.070Z,56.80
2022-10-22T17:09:00.928Z,56.90
2022-10-22T17:12:02.761Z,57.00
2022-10-22T17:15:05.892Z,57.00
2022-10-22T17:18:07.685Z,56.90
2022-10-22T17:21:11.278Z,57.00
2022-10-22T17:24:12.996Z,57.00
2022-10-22T17:27:14.788Z,57.00
2022-10-22T17:30:22.016Z,57.00
2022-10-22T17:33:26.653Z,57.00
2022-10-22T17:36:33.252Z,56.90
2022-10-22T17:39:37.450Z,56.90
2022-10-22T17:42:39.528Z,57.00
2022-10-22T17:45:41.446Z,57.00
2022-10-22T17:48:43.297Z,57.00
2022-10-22T17:51:45.687Z,57.00
2022-10-22T17:54:48.807Z,57.00
2022-10-22T17:57:50.708Z,57.00
2022-10-22T18:00:52.470Z,57.00
2022-10-22T18:03:58.326Z,57.00
2022-10-22T18:07:00.701Z,57.10
2022-10-22T18:10:02.407Z,57.00
2022-10-22T18:13:04.137Z,57.10
2022-10-22T18:16:06.303Z,57.10
2022-10-22T18:19:08.007Z,57.10
2022-10-22T18:22:09.697Z,57.10
2022-10-22T18:25:12.678Z,57.10
2022-10-22T18:28:16.770Z,57.10
2022-10-22T18:31:20.954Z,57.10
2022-10-22T18:34:23.936Z,57.20
2022-10-22T18:37:25.919Z,57.20
2022-10-22T18:40:30.082Z,57.20
2022-10-22T18:43:31.859Z,57.20
2022-10-22T18:46:38.251Z,57.20
2022-10-22T18:49:40.115Z,57.30
2022-10-22T18:52:42.179Z,57.30
2022-10-22T18:55:44.698Z,57.30
2022-10-22T18:58:48.502Z,57.30
2022-10-22T19:01:52.701Z,57.20
2022-10-22T19:04:54.502Z,57.30
2022-10-22T19:07:56.223Z,57.30
2022-10-22T19:10:58.101Z,57.30
2022-10-22T19:13:59.816Z,57.30
2022-10-22T19:17:01.953Z,57.30
2022-10-22T19:20:04.292Z,57.30
2022-10-22T19:23:07.257Z,57.30
2022-10-22T19:26:11.984Z,57.20
2022-10-22T19:29:15.846Z,57.30
2022-10-22T19:32:19.854Z,57.30
2022-10-22T19:35:21.624Z,57.30
2022-10-22T19:38:29.473Z,57.30
2022-10-22T19:41:32.726Z,57.30
2022-10-22T19:44:34.498Z,57.30
2022-10-22T19:47:36.636Z,57.30
2022-10-22T19:50:38.457Z,57.30
2022-10-22T19:53:41.062Z,57.30
2022-10-22T19:56:42.787Z,57.30
2022-10-22T19:59:45.311Z,57.30
2022-10-22T20:02:46.983Z,57.30
2022-10-22T20:05:51.021Z,57.30
2022-10-22T20:08:55.967Z,57.30
2022-10-22T20:11:58.305Z,57.30
2022-10-22T20:15:01.562Z,57.30
2022-10-22T20:18:03.369Z,57.30
2022-10-22T20:21:07.193Z,57.20
2022-10-22T20:24:10.099Z,57.20
2022-10-22T20:27:13.475Z,57.30
2022-10-22T20:33:23.177Z,57.30
2022-10-22T20:36:26.047Z,57.20
2022-10-22T20:39:27.767Z,57.30
2022-10-22T20:42:29.462Z,57.20
2022-10-22T20:45:31.241Z,57.20
2022-10-22T20:48:33.464Z,57.20
2022-10-22T20:51:36.357Z,57.20
2022-10-22T20:54:43.970Z,57.20
2022-10-22T20:57:45.947Z,57.70
2022-10-22T21:00:48.313Z,57.20
2022-10-22T21:03:51.843Z,57.20
2022-10-22T21:06:54.616Z,57.20
2022-10-22T21:09:56.344Z,57.10
2022-10-22T21:12:58.316Z,57.10
2022-10-22T21:16:06.092Z,57.20
2022-10-22T21:19:07.795Z,57.20
2022-10-22T21:22:09.490Z,57.10
2022-10-22T21:25:11.831Z,57.10
2022-10-22T21:28:13.522Z,57.10
2022-10-22T21:31:21.554Z,57.10
2022-10-22T21:34:23.319Z,57.10
2022-10-22T21:37:25.173Z,57.20
2022-10-22T21:40:27.924Z,57.10
2022-10-22T21:43:29.619Z,57.20
2022-10-22T21:46:31.393Z,57.10
2022-10-22T21:49:33.281Z,57.10
2022-10-22T21:52:34.980Z,57.20
2022-10-22T21:55:40.921Z,57.40
2022-10-22T21:58:43.244Z,57.00
2022-10-22T22:01:45.032Z,57.00
2022-10-22T22:04:46.789Z,56.90
2022-10-22T22:07:48.479Z,56.70
2022-10-22T22:10:51.954Z,56.70
2022-10-22T22:13:54.997Z,56.70
2022-10-22T22:16:56.714Z,56.70
2022-10-22T22:19:58.479Z,56.60
2022-10-22T22:23:00.242Z,56.60
2022-10-22T22:26:02.505Z,56.60
2022-10-22T22:29:04.722Z,56.60
2022-10-22T22:32:06.506Z,56.50
2022-10-22T22:35:08.396Z,56.40
2022-10-22T22:38:10.107Z,56.50
2022-10-22T22:41:11.773Z,56.40
2022-10-22T22:44:13.844Z,56.40
2022-10-22T22:47:16.330Z,56.30
2022-10-22T22:50:18.109Z,56.40
2022-10-22T22:53:19.855Z,56.30
2022-10-22T22:56:24.436Z,56.30
2022-10-22T22:59:26.227Z,56.40
2022-10-22T23:02:27.935Z,56.30
2022-10-22T23:05:29.837Z,56.30
2022-10-22T23:08:31.812Z,56.30
2022-10-22T23:11:34.302Z,56.20
2022-10-22T23:14:36.027Z,56.20
2022-10-22T23:17:38.454Z,56.20
2022-10-22T23:20:40.169Z,56.20
2022-10-22T23:23:51.007Z,56.20
2022-10-22T23:26:54.965Z,56.20
2022-10-22T23:29:56.658Z,56.20
2022-10-22T23:32:58.389Z,56.10
2022-10-22T23:36:06.883Z,56.20
2022-10-22T23:39:11.439Z,56.10
2022-10-22T23:42:13.145Z,56.00
2022-10-22T23:45:14.968Z,56.00
2022-10-22T23:48:16.689Z,56.10
2022-10-22T23:51:18.453Z,56.10
2022-10-22T23:54:20.209Z,56.10
2022-10-22T23:57:21.943Z,56.10
